sensor_id;sensor_type;location;lat;lon;timestamp;temperature;humidity
7844;DHT22;3967;48.702;9.326;2022-09-09T00:04:35;17.00;93.40
7844;DHT22;3967;48.702;9.326;2022-09-09T00:15:46;17.00;94.00
7844;DHT22;3967;48.702;9.326;2022-09-09T00:20:57;16.70;94.30
7844;DHT22;3967;48.702;9.326;2022-09-09T00:23:28;16.80;94.30
7844;DHT22;3967;48.702;9.326;2022-09-09T00:28:26;16.80;94.30
7844;DHT22;3967;48.702;9.326;2022-09-09T00:30:53;16.80;94.20
7844;DHT22;3967;48.702;9.326;2022-09-09T00:33:26;16.70;94.30
7844;DHT22;3967;48.702;9.326;2022-09-09T00:35:56;16.60;94.50
7844;DHT22;3967;48.702;9.326;2022-09-09T00:38:28;16.60;94.60
7844;DHT22;3967;48.702;9.326;2022-09-09T00:41:03;16.60;94.60
7844;DHT22;3967;48.702;9.326;2022-09-09T00:43:38;16.70;94.60
7844;DHT22;3967;48.702;9.326;2022-09-09T00:46:33;16.70;94.60
7844;DHT22;3967;48.702;9.326;2022-09-09T00:57:30;16.80;94.60
7844;DHT22;3967;48.702;9.326;2022-09-09T01:00:17;16.80;95.00
7844;DHT22;3967;48.702;9.326;2022-09-09T01:08:08;16.80;95.20
7844;DHT22;3967;48.702;9.326;2022-09-09T01:10:49;16.80;95.40
7844;DHT22;3967;48.702;9.326;2022-09-09T01:13:25;16.80;95.60
7844;DHT22;3967;48.702;9.326;2022-09-09T01:15:53;16.90;95.50
7844;DHT22;3967;48.702;9.326;2022-09-09T01:18:30;16.70;95.50
7844;DHT22;3967;48.702;9.326;2022-09-09T01:23:45;16.50;96.60
7844;DHT22;3967;48.702;9.326;2022-09-09T01:28:57;16.40;96.70
7844;DHT22;3967;48.702;9.326;2022-09-09T01:31:32;16.50;96.50
7844;DHT22;3967;48.702;9.326;2022-09-09T01:33:59;16.50;96.60
7844;DHT22;3967;48.702;9.326;2022-09-09T01:39:36;16.60;96.50
7844;DHT22;3967;48.702;9.326;2022-09-09T01:42:05;16.50;96.50
7844;DHT22;3967;48.702;9.326;2022-09-09T01:44:33;16.60;96.40
7844;DHT22;3967;48.702;9.326;2022-09-09T01:47:00;16.50;96.40
7844;DHT22;3967;48.702;9.326;2022-09-09T01:49:27;16.60;96.40
7844;DHT22;3967;48.702;9.326;2022-09-09T01:51:55;16.50;96.20
7844;DHT22;3967;48.702;9.326;2022-09-09T01:54:25;16.40;96.20
7844;DHT22;3967;48.702;9.326;2022-09-09T02:00:06;16.40;96.70
7844;DHT22;3967;48.702;9.326;2022-09-09T02:03:03;16.30;96.70
7844;DHT22;3967;48.702;9.326;2022-09-09T02:05:48;16.30;96.80
7844;DHT22;3967;48.702;9.326;2022-09-09T02:08:43;16.20;96.70
7844;DHT22;3967;48.702;9.326;2022-09-09T02:11:17;16.20;97.00
7844;DHT22;3967;48.702;9.326;2022-09-09T02:13:47;16.30;97.20
7844;DHT22;3967;48.702;9.326;2022-09-09T02:16:34;16.20;97.30
7844;DHT22;3967;48.702;9.326;2022-09-09T02:19:21;16.10;97.30
7844;DHT22;3967;48.702;9.326;2022-09-09T02:21:54;16.10;97.70
7844;DHT22;3967;48.702;9.326;2022-09-09T02:24:22;15.80;98.20
7844;DHT22;3967;48.702;9.326;2022-09-09T02:26:50;15.90;98.40
7844;DHT22;3967;48.702;9.326;2022-09-09T02:29:29;15.90;98.10
7844;DHT22;3967;48.702;9.326;2022-09-09T02:32:01;15.90;98.30
7844;DHT22;3967;48.702;9.326;2022-09-09T02:34:31;15.90;98.00
7844;DHT22;3967;48.702;9.326;2022-09-09T02:37:00;15.90;98.00
7844;DHT22;3967;48.702;9.326;2022-09-09T02:39:28;15.90;97.90
7844;DHT22;3967;48.702;9.326;2022-09-09T02:41:55;16.00;97.90
7844;DHT22;3967;48.702;9.326;2022-09-09T02:44:22;16.00;97.70
7844;DHT22;3967;48.702;9.326;2022-09-09T02:52:42;15.80;98.60
7844;DHT22;3967;48.702;9.326;2022-09-09T02:55:20;15.70;98.90
7844;DHT22;3967;48.702;9.326;2022-09-09T02:57:50;15.70;98.80
7844;DHT22;3967;48.702;9.326;2022-09-09T03:00:23;15.80;98.50
7844;DHT22;3967;48.702;9.326;2022-09-09T03:02:50;15.90;98.60
7844;DHT22;3967;48.702;9.326;2022-09-09T03:05:17;15.70;98.80
7844;DHT22;3967;48.702;9.326;2022-09-09T03:07:44;15.70;99.00
7844;DHT22;3967;48.702;9.326;2022-09-09T03:10:11;15.60;99.20
7844;DHT22;3967;48.702;9.326;2022-09-09T03:12:37;15.50;99.50
7844;DHT22;3967;48.702;9.326;2022-09-09T03:15:06;15.30;99.90
7844;DHT22;3967;48.702;9.326;2022-09-09T03:17:33;15.20;99.90
7844;DHT22;3967;48.702;9.326;2022-09-09T03:20:02;15.20;99.90
7844;DHT22;3967;48.702;9.326;2022-09-09T03:22:28;15.20;99.90
7844;DHT22;3967;48.702;9.326;2022-09-09T03:24:55;15.20;99.90
7844;DHT22;3967;48.702;9.326;2022-09-09T03:27:21;15.30;99.90
7844;DHT22;3967;48.702;9.326;2022-09-09T03:29:48;15.40;99.90
7844;DHT22;3967;48.702;9.326;2022-09-09T03:32:18;15.30;99.90
7844;DHT22;3967;48.702;9.326;2022-09-09T03:34:45;15.30;99.90
7844;DHT22;3967;48.702;9.326;2022-09-09T03:37:13;15.20;99.90
7844;DHT22;3967;48.702;9.326;2022-09-09T03:39:40;15.20;99.90
7844;DHT22;3967;48.702;9.326;2022-09-09T03:42:07;15.10;99.90
7844;DHT22;3967;48.702;9.326;2022-09-09T03:44:33;15.20;99.90
7844;DHT22;3967;48.702;9.326;2022-09-09T03:47:00;15.30;99.90
7844;DHT22;3967;48.702;9.326;2022-09-09T03:49:27;15.30;99.90
7844;DHT22;3967;48.702;9.326;2022-09-09T03:51:56;15.30;99.90
7844;DHT22;3967;48.702;9.326;2022-09-09T03:54:25;15.20;99.90
7844;DHT22;3967;48.702;9.326;2022-09-09T03:56:51;15.00;99.90
7844;DHT22;3967;48.702;9.326;2022-09-09T03:59:18;14.80;99.90
7844;DHT22;3967;48.702;9.326;2022-09-09T04:01:45;14.70;99.90
7844;DHT22;3967;48.702;9.326;2022-09-09T04:04:13;14.80;99.90
7844;DHT22;3967;48.702;9.326;2022-09-09T04:06:40;14.80;99.90
7844;DHT22;3967;48.702;9.326;2022-09-09T04:09:06;14.80;99.90
7844;DHT22;3967;48.702;9.326;2022-09-09T04:11:33;14.80;99.90
7844;DHT22;3967;48.702;9.326;2022-09-09T04:14:00;14.80;99.90
7844;DHT22;3967;48.702;9.326;2022-09-09T04:16:27;14.80;99.90
7844;DHT22;3967;48.702;9.326;2022-09-09T04:18:53;14.70;99.90
7844;DHT22;3967;48.702;9.326;2022-09-09T04:21:20;14.50;99.90
7844;DHT22;3967;48.702;9.326;2022-09-09T04:23:47;14.70;99.90
7844;DHT22;3967;48.702;9.326;2022-09-09T04:26:14;14.90;99.90
7844;DHT22;3967;48.702;9.326;2022-09-09T04:28:41;15.00;99.90
7844;DHT22;3967;48.702;9.326;2022-09-09T04:31:19;15.20;99.90
7844;DHT22;3967;48.702;9.326;2022-09-09T04:33:47;15.20;99.90
7844;DHT22;3967;48.702;9.326;2022-09-09T04:36:14;15.20;99.90
7844;DHT22;3967;48.702;9.326;2022-09-09T04:38:40;15.30;99.90
7844;DHT22;3967;48.702;9.326;2022-09-09T04:41:07;15.20;99.90
7844;DHT22;3967;48.702;9.326;2022-09-09T04:43:34;15.20;99.90
7844;DHT22;3967;48.702;9.326;2022-09-09T04:46:00;15.20;99.90
7844;DHT22;3967;48.702;9.326;2022-09-09T04:48:27;15.30;99.90
7844;DHT22;3967;48.702;9.326;2022-09-09T04:50:58;15.20;99.90
7844;DHT22;3967;48.702;9.326;2022-09-09T04:53:26;15.40;99.90
7844;DHT22;3967;48.702;9.326;2022-09-09T04:56:11;15.40;99.90
7844;DHT22;3967;48.702;9.326;2022-09-09T04:58:39;15.30;99.90
7844;DHT22;3967;48.702;9.326;2022-09-09T05:01:11;15.20;99.10
7844;DHT22;3967;48.702;9.326;2022-09-09T05:03:38;15.30;99.70
7844;DHT22;3967;48.702;9.326;2022-09-09T05:06:10;15.40;99.30
7844;DHT22;3967;48.702;9.326;2022-09-09T05:08:37;15.40;99.30
7844;DHT22;3967;48.702;9.326;2022-09-09T05:13:45;15.20;99.90
7844;DHT22;3967;48.702;9.326;2022-09-09T05:16:13;15.20;99.90
7844;DHT22;3967;48.702;9.326;2022-09-09T05:18:40;15.20;99.90
7844;DHT22;3967;48.702;9.326;2022-09-09T05:21:13;15.20;99.90
7844;DHT22;3967;48.702;9.326;2022-09-09T05:23:40;15.10;99.90
7844;DHT22;3967;48.702;9.326;2022-09-09T05:26:09;14.90;99.90
7844;DHT22;3967;48.702;9.326;2022-09-09T05:28:42;15.00;99.90
7844;DHT22;3967;48.702;9.326;2022-09-09T05:31:10;15.10;99.90
7844;DHT22;3967;48.702;9.326;2022-09-09T05:33:42;15.10;99.90
7844;DHT22;3967;48.702;9.326;2022-09-09T05:36:12;14.90;99.90
7844;DHT22;3967;48.702;9.326;2022-09-09T05:38:42;14.90;99.90
7844;DHT22;3967;48.702;9.326;2022-09-09T05:41:09;15.10;99.90
7844;DHT22;3967;48.702;9.326;2022-09-09T05:43:38;15.20;99.90
7844;DHT22;3967;48.702;9.326;2022-09-09T05:46:15;15.30;99.90
7844;DHT22;3967;48.702;9.326;2022-09-09T05:48:44;15.30;99.90
7844;DHT22;3967;48.702;9.326;2022-09-09T05:51:16;15.30;99.90
7844;DHT22;3967;48.702;9.326;2022-09-09T05:53:44;15.30;99.90
7844;DHT22;3967;48.702;9.326;2022-09-09T05:56:14;15.40;99.90
7844;DHT22;3967;48.702;9.326;2022-09-09T05:58:41;15.50;99.90
7844;DHT22;3967;48.702;9.326;2022-09-09T06:01:13;15.60;99.90
7844;DHT22;3967;48.702;9.326;2022-09-09T06:03:41;15.60;99.90
7844;DHT22;3967;48.702;9.326;2022-09-09T06:06:10;15.40;99.90
7844;DHT22;3967;48.702;9.326;2022-09-09T06:08:39;15.50;99.90
7844;DHT22;3967;48.702;9.326;2022-09-09T06:11:15;15.50;99.90
7844;DHT22;3967;48.702;9.326;2022-09-09T06:13:42;15.50;99.90
7844;DHT22;3967;48.702;9.326;2022-09-09T06:16:14;15.40;99.90
7844;DHT22;3967;48.702;9.326;2022-09-09T06:18:41;15.30;99.90
7844;DHT22;3967;48.702;9.326;2022-09-09T06:21:16;15.40;99.90
7844;DHT22;3967;48.702;9.326;2022-09-09T06:23:43;15.30;99.90
7844;DHT22;3967;48.702;9.326;2022-09-09T06:26:19;15.40;99.90
7844;DHT22;3967;48.702;9.326;2022-09-09T06:28:47;15.50;99.90
7844;DHT22;3967;48.702;9.326;2022-09-09T06:31:16;15.60;99.90
7844;DHT22;3967;48.702;9.326;2022-09-09T06:33:55;15.50;99.90
7844;DHT22;3967;48.702;9.326;2022-09-09T06:36:24;15.60;99.90
7844;DHT22;3967;48.702;9.326;2022-09-09T06:38:51;15.80;99.90
7844;DHT22;3967;48.702;9.326;2022-09-09T06:41:20;15.80;99.90
7844;DHT22;3967;48.702;9.326;2022-09-09T06:43:46;15.90;99.90
7844;DHT22;3967;48.702;9.326;2022-09-09T06:46:18;16.00;99.90
7844;DHT22;3967;48.702;9.326;2022-09-09T06:48:46;16.00;99.90
7844;DHT22;3967;48.702;9.326;2022-09-09T06:51:16;15.90;99.90
7844;DHT22;3967;48.702;9.326;2022-09-09T06:53:45;15.70;99.90
7844;DHT22;3967;48.702;9.326;2022-09-09T06:56:27;15.80;99.90
7844;DHT22;3967;48.702;9.326;2022-09-09T06:58:56;15.90;99.90
7844;DHT22;3967;48.702;9.326;2022-09-09T07:01:24;16.10;99.90
7844;DHT22;3967;48.702;9.326;2022-09-09T07:03:53;16.20;99.90
7844;DHT22;3967;48.702;9.326;2022-09-09T07:06:21;16.30;99.90
7844;DHT22;3967;48.702;9.326;2022-09-09T07:09:01;16.60;99.90
7844;DHT22;3967;48.702;9.326;2022-09-09T07:11:32;16.80;99.90
7844;DHT22;3967;48.702;9.326;2022-09-09T07:14:00;17.00;99.90
7844;DHT22;3967;48.702;9.326;2022-09-09T07:16:27;17.30;99.30
7844;DHT22;3967;48.702;9.326;2022-09-09T07:18:55;17.50;98.70
7844;DHT22;3967;48.702;9.326;2022-09-09T07:21:28;17.80;98.20
7844;DHT22;3967;48.702;9.326;2022-09-09T07:23:56;18.00;97.30
7844;DHT22;3967;48.702;9.326;2022-09-09T07:26:25;18.00;97.40
7844;DHT22;3967;48.702;9.326;2022-09-09T07:28:53;17.90;97.50
7844;DHT22;3967;48.702;9.326;2022-09-09T07:31:23;18.00;97.60
7844;DHT22;3967;48.702;9.326;2022-09-09T07:33:51;18.20;97.80
7844;DHT22;3967;48.702;9.326;2022-09-09T07:36:21;18.30;96.50
7844;DHT22;3967;48.702;9.326;2022-09-09T07:38:50;18.40;96.30
7844;DHT22;3967;48.702;9.326;2022-09-09T07:43:48;18.40;97.20
7844;DHT22;3967;48.702;9.326;2022-09-09T07:46:17;18.30;98.20
7844;DHT22;3967;48.702;9.326;2022-09-09T07:48:47;18.30;98.30
7844;DHT22;3967;48.702;9.326;2022-09-09T07:51:20;18.30;97.40
7844;DHT22;3967;48.702;9.326;2022-09-09T07:53:52;18.30;97.80
7844;DHT22;3967;48.702;9.326;2022-09-09T07:56:19;18.30;98.10
7844;DHT22;3967;48.702;9.326;2022-09-09T07:58:50;18.40;98.10
7844;DHT22;3967;48.702;9.326;2022-09-09T08:01:22;18.80;98.30
7844;DHT22;3967;48.702;9.326;2022-09-09T08:03:58;18.90;97.00
7844;DHT22;3967;48.702;9.326;2022-09-09T08:06:31;19.20;96.40
7844;DHT22;3967;48.702;9.326;2022-09-09T08:08:59;19.00;96.60
7844;DHT22;3967;48.702;9.326;2022-09-09T08:11:28;19.30;95.80
7844;DHT22;3967;48.702;9.326;2022-09-09T08:13:55;19.80;94.20
7844;DHT22;3967;48.702;9.326;2022-09-09T08:16:30;20.10;91.80
7844;DHT22;3967;48.702;9.326;2022-09-09T08:18:58;20.40;91.10
7844;DHT22;3967;48.702;9.326;2022-09-09T08:21:27;20.30;90.70
7844;DHT22;3967;48.702;9.326;2022-09-09T08:23:56;20.70;90.90
7844;DHT22;3967;48.702;9.326;2022-09-09T08:26:32;20.70;90.10
7844;DHT22;3967;48.702;9.326;2022-09-09T08:29:02;20.90;90.00
7844;DHT22;3967;48.702;9.326;2022-09-09T08:31:35;20.70;89.40
7844;DHT22;3967;48.702;9.326;2022-09-09T08:34:05;20.40;90.10
7844;DHT22;3967;48.702;9.326;2022-09-09T08:36:35;20.40;90.20
7844;DHT22;3967;48.702;9.326;2022-09-09T08:39:04;20.50;90.40
7844;DHT22;3967;48.702;9.326;2022-09-09T08:58:31;20.60;89.30
7844;DHT22;3967;48.702;9.326;2022-09-09T09:01:39;20.70;87.80
7844;DHT22;3967;48.702;9.326;2022-09-09T09:04:33;20.70;87.90
7844;DHT22;3967;48.702;9.326;2022-09-09T09:12:18;21.00;89.10
7844;DHT22;3967;48.702;9.326;2022-09-09T09:14:47;21.50;87.70
7844;DHT22;3967;48.702;9.326;2022-09-09T09:17:19;21.80;85.60
7844;DHT22;3967;48.702;9.326;2022-09-09T09:19:48;22.10;86.10
7844;DHT22;3967;48.702;9.326;2022-09-09T09:24:55;22.10;83.70
7844;DHT22;3967;48.702;9.326;2022-09-09T09:27:27;22.00;82.20
7844;DHT22;3967;48.702;9.326;2022-09-09T09:29:58;21.90;82.10
7844;DHT22;3967;48.702;9.326;2022-09-09T09:32:56;22.00;81.90
7844;DHT22;3967;48.702;9.326;2022-09-09T09:35:24;22.10;82.20
7844;DHT22;3967;48.702;9.326;2022-09-09T09:37:51;22.20;82.10
7844;DHT22;3967;48.702;9.326;2022-09-09T09:40:51;22.40;81.30
7844;DHT22;3967;48.702;9.326;2022-09-09T09:43:28;23.00;80.70
7844;DHT22;3967;48.702;9.326;2022-09-09T09:45:56;23.20;79.40
7844;DHT22;3967;48.702;9.326;2022-09-09T09:48:43;22.80;69.80
7844;DHT22;3967;48.702;9.326;2022-09-09T09:51:22;22.50;67.00
7844;DHT22;3967;48.702;9.326;2022-09-09T09:53:49;22.20;63.50
7844;DHT22;3967;48.702;9.326;2022-09-09T09:56:16;22.30;63.00
7844;DHT22;3967;48.702;9.326;2022-09-09T10:01:30;22.70;61.90
7844;DHT22;3967;48.702;9.326;2022-09-09T10:04:02;22.70;61.10
7844;DHT22;3967;48.702;9.326;2022-09-09T10:06:34;22.80;61.20
7844;DHT22;3967;48.702;9.326;2022-09-09T10:09:01;22.90;62.00
7844;DHT22;3967;48.702;9.326;2022-09-09T10:14:31;22.80;61.40
7844;DHT22;3967;48.702;9.326;2022-09-09T10:17:14;23.10;65.40
7844;DHT22;3967;48.702;9.326;2022-09-09T10:22:39;23.00;65.30
7844;DHT22;3967;48.702;9.326;2022-09-09T10:36:21;22.70;69.00
7844;DHT22;3967;48.702;9.326;2022-09-09T10:47:54;22.70;70.80
7844;DHT22;3967;48.702;9.326;2022-09-09T10:50:48;22.80;72.80
7844;DHT22;3967;48.702;9.326;2022-09-09T10:56:26;23.20;71.40
7844;DHT22;3967;48.702;9.326;2022-09-09T10:59:00;23.20;70.50
7844;DHT22;3967;48.702;9.326;2022-09-09T11:04:31;23.50;68.70
7844;DHT22;3967;48.702;9.326;2022-09-09T11:07:05;23.40;69.00
7844;DHT22;3967;48.702;9.326;2022-09-09T11:09:45;23.30;68.30
7844;DHT22;3967;48.702;9.326;2022-09-09T11:12:19;23.40;65.20
7844;DHT22;3967;48.702;9.326;2022-09-09T11:14:51;23.40;62.30
7844;DHT22;3967;48.702;9.326;2022-09-09T11:17:25;23.40;61.40
7844;DHT22;3967;48.702;9.326;2022-09-09T11:19:53;23.60;62.90
7844;DHT22;3967;48.702;9.326;2022-09-09T11:23:53;23.60;60.70
7844;DHT22;3967;48.702;9.326;2022-09-09T11:25:57;23.50;62.20
7844;DHT22;3967;48.702;9.326;2022-09-09T11:34:31;22.00;74.10
7844;DHT22;3967;48.702;9.326;2022-09-09T11:37:17;21.70;78.80
7844;DHT22;3967;48.702;9.326;2022-09-09T11:42:27;21.40;87.20
7844;DHT22;3967;48.702;9.326;2022-09-09T11:44:54;21.30;89.90
7844;DHT22;3967;48.702;9.326;2022-09-09T11:52:36;20.70;90.30
7844;DHT22;3967;48.702;9.326;2022-09-09T11:55:28;20.90;90.50
7844;DHT22;3967;48.702;9.326;2022-09-09T11:58:03;21.20;90.90
7844;DHT22;3967;48.702;9.326;2022-09-09T12:05:59;21.70;87.20
7844;DHT22;3967;48.702;9.326;2022-09-09T12:08:28;21.60;83.40
7844;DHT22;3967;48.702;9.326;2022-09-09T12:10:58;21.80;81.00
7844;DHT22;3967;48.702;9.326;2022-09-09T12:13:27;21.60;78.40
7844;DHT22;3967;48.702;9.326;2022-09-09T12:15:58;21.50;78.60
7844;DHT22;3967;48.702;9.326;2022-09-09T12:18:32;21.40;77.70
7844;DHT22;3967;48.702;9.326;2022-09-09T12:21:18;21.30;77.40
7844;DHT22;3967;48.702;9.326;2022-09-09T12:23:53;21.40;77.60
7844;DHT22;3967;48.702;9.326;2022-09-09T12:26:31;21.70;76.80
7844;DHT22;3967;48.702;9.326;2022-09-09T12:34:28;22.10;72.90
7844;DHT22;3967;48.702;9.326;2022-09-09T12:37:00;22.30;72.50
7844;DHT22;3967;48.702;9.326;2022-09-09T12:41:58;22.40;70.00
7844;DHT22;3967;48.702;9.326;2022-09-09T12:44:26;22.60;69.00
7844;DHT22;3967;48.702;9.326;2022-09-09T12:46:58;22.90;70.80
7844;DHT22;3967;48.702;9.326;2022-09-09T12:51:53;23.00;66.90
7844;DHT22;3967;48.702;9.326;2022-09-09T12:54:21;22.90;65.70
7844;DHT22;3967;48.702;9.326;2022-09-09T12:56:48;22.90;65.90
7844;DHT22;3967;48.702;9.326;2022-09-09T12:59:24;22.90;65.80
7844;DHT22;3967;48.702;9.326;2022-09-09T13:01:58;22.90;67.30
7844;DHT22;3967;48.702;9.326;2022-09-09T13:04:25;22.80;65.50
7844;DHT22;3967;48.702;9.326;2022-09-09T13:06:52;22.70;65.10
7844;DHT22;3967;48.702;9.326;2022-09-09T13:09:19;22.60;64.70
7844;DHT22;3967;48.702;9.326;2022-09-09T13:11:50;22.50;66.00
7844;DHT22;3967;48.702;9.326;2022-09-09T13:14:29;22.70;66.00
7844;DHT22;3967;48.702;9.326;2022-09-09T13:17:01;22.90;66.50
7844;DHT22;3967;48.702;9.326;2022-09-09T13:19:34;22.80;65.00
7844;DHT22;3967;48.702;9.326;2022-09-09T13:24:47;22.90;63.30
7844;DHT22;3967;48.702;9.326;2022-09-09T13:29:57;22.60;63.50
7844;DHT22;3967;48.702;9.326;2022-09-09T13:32:25;22.80;64.80
7844;DHT22;3967;48.702;9.326;2022-09-09T13:35:00;22.90;64.10
7844;DHT22;3967;48.702;9.326;2022-09-09T13:37:33;22.70;62.00
7844;DHT22;3967;48.702;9.326;2022-09-09T13:40:01;22.70;62.10
7844;DHT22;3967;48.702;9.326;2022-09-09T13:42:32;22.80;61.70
7844;DHT22;3967;48.702;9.326;2022-09-09T13:45:01;22.90;62.50
7844;DHT22;3967;48.702;9.326;2022-09-09T13:47:32;22.90;62.00
7844;DHT22;3967;48.702;9.326;2022-09-09T13:50:23;23.10;63.50
7844;DHT22;3967;48.702;9.326;2022-09-09T13:52:53;23.30;62.80
7844;DHT22;3967;48.702;9.326;2022-09-09T13:55:22;23.30;63.10
7844;DHT22;3967;48.702;9.326;2022-09-09T13:57:56;23.20;63.70
7844;DHT22;3967;48.702;9.326;2022-09-09T14:00:23;22.80;63.60
7844;DHT22;3967;48.702;9.326;2022-09-09T14:02:51;23.00;66.00
7844;DHT22;3967;48.702;9.326;2022-09-09T14:05:18;22.80;66.00
7844;DHT22;3967;48.702;9.326;2022-09-09T14:07:45;23.00;66.80
7844;DHT22;3967;48.702;9.326;2022-09-09T14:10:18;23.10;67.30
7844;DHT22;3967;48.702;9.326;2022-09-09T14:12:45;23.30;63.20
7844;DHT22;3967;48.702;9.326;2022-09-09T14:15:13;23.30;62.30
7844;DHT22;3967;48.702;9.326;2022-09-09T14:17:40;23.10;60.40
7844;DHT22;3967;48.702;9.326;2022-09-09T14:20:08;23.40;61.00
7844;DHT22;3967;48.702;9.326;2022-09-09T14:22:36;23.40;59.80
7844;DHT22;3967;48.702;9.326;2022-09-09T14:25:03;23.40;59.70
7844;DHT22;3967;48.702;9.326;2022-09-09T14:27:30;23.30;60.50
7844;DHT22;3967;48.702;9.326;2022-09-09T14:29:57;23.60;60.80
7844;DHT22;3967;48.702;9.326;2022-09-09T14:32:26;23.70;59.60
7844;DHT22;3967;48.702;9.326;2022-09-09T14:34:53;23.60;60.80
7844;DHT22;3967;48.702;9.326;2022-09-09T14:37:19;23.70;60.50
7844;DHT22;3967;48.702;9.326;2022-09-09T14:39:47;23.70;59.50
7844;DHT22;3967;48.702;9.326;2022-09-09T14:42:14;23.70;60.10
7844;DHT22;3967;48.702;9.326;2022-09-09T14:44:41;23.70;59.20
7844;DHT22;3967;48.702;9.326;2022-09-09T14:47:08;23.80;59.40
7844;DHT22;3967;48.702;9.326;2022-09-09T14:49:35;23.60;58.70
7844;DHT22;3967;48.702;9.326;2022-09-09T14:52:03;23.60;59.80
7844;DHT22;3967;48.702;9.326;2022-09-09T14:54:31;23.80;58.70
7844;DHT22;3967;48.702;9.326;2022-09-09T14:56:59;23.80;59.20
7844;DHT22;3967;48.702;9.326;2022-09-09T14:59:25;23.80;56.60
7844;DHT22;3967;48.702;9.326;2022-09-09T15:01:53;23.70;55.90
7844;DHT22;3967;48.702;9.326;2022-09-09T15:04:20;23.60;55.60
7844;DHT22;3967;48.702;9.326;2022-09-09T15:06:47;23.80;56.30
7844;DHT22;3967;48.702;9.326;2022-09-09T15:09:15;23.90;56.30
7844;DHT22;3967;48.702;9.326;2022-09-09T15:11:42;23.90;56.40
7844;DHT22;3967;48.702;9.326;2022-09-09T15:14:10;23.80;55.70
7844;DHT22;3967;48.702;9.326;2022-09-09T15:16:39;24.10;55.80
7844;DHT22;3967;48.702;9.326;2022-09-09T15:19:06;23.90;56.10
7844;DHT22;3967;48.702;9.326;2022-09-09T15:21:35;23.90;55.90
7844;DHT22;3967;48.702;9.326;2022-09-09T15:24:02;23.70;54.90
7844;DHT22;3967;48.702;9.326;2022-09-09T15:26:30;23.50;55.90
7844;DHT22;3967;48.702;9.326;2022-09-09T15:28:57;23.50;55.90
7844;DHT22;3967;48.702;9.326;2022-09-09T15:31:29;23.60;56.10
7844;DHT22;3967;48.702;9.326;2022-09-09T15:33:58;23.50;56.10
7844;DHT22;3967;48.702;9.326;2022-09-09T15:36:33;23.40;55.80
7844;DHT22;3967;48.702;9.326;2022-09-09T15:39:00;23.40;56.00
7844;DHT22;3967;48.702;9.326;2022-09-09T15:41:28;23.60;56.70
7844;DHT22;3967;48.702;9.326;2022-09-09T15:43:56;23.50;56.50
7844;DHT22;3967;48.702;9.326;2022-09-09T15:46:26;23.30;56.90
7844;DHT22;3967;48.702;9.326;2022-09-09T15:49:20;23.10;57.60
7844;DHT22;3967;48.702;9.326;2022-09-09T15:51:52;22.90;57.50
7844;DHT22;3967;48.702;9.326;2022-09-09T15:54:20;23.00;58.30
7844;DHT22;3967;48.702;9.326;2022-09-09T15:56:58;23.10;58.90
7844;DHT22;3967;48.702;9.326;2022-09-09T15:59:27;22.80;58.30
7844;DHT22;3967;48.702;9.326;2022-09-09T16:01:58;22.80;58.50
7844;DHT22;3967;48.702;9.326;2022-09-09T16:04:27;22.80;57.90
7844;DHT22;3967;48.702;9.326;2022-09-09T16:07:00;22.70;58.20
7844;DHT22;3967;48.702;9.326;2022-09-09T16:09:27;22.70;58.40
7844;DHT22;3967;48.702;9.326;2022-09-09T16:12:02;22.80;58.60
7844;DHT22;3967;48.702;9.326;2022-09-09T16:14:29;22.80;58.20
7844;DHT22;3967;48.702;9.326;2022-09-09T16:17:00;22.90;58.30
7844;DHT22;3967;48.702;9.326;2022-09-09T16:19:27;22.90;58.60
7844;DHT22;3967;48.702;9.326;2022-09-09T16:21:54;22.60;57.80
7844;DHT22;3967;48.702;9.326;2022-09-09T16:24:21;22.60;57.80
7844;DHT22;3967;48.702;9.326;2022-09-09T16:26:49;22.50;58.20
7844;DHT22;3967;48.702;9.326;2022-09-09T16:29:17;22.40;58.70
7844;DHT22;3967;48.702;9.326;2022-09-09T16:31:48;22.40;58.30
7844;DHT22;3967;48.702;9.326;2022-09-09T16:34:16;22.40;57.80
7844;DHT22;3967;48.702;9.326;2022-09-09T16:36:44;22.10;57.60
7844;DHT22;3967;48.702;9.326;2022-09-09T16:39:13;22.10;58.20
7844;DHT22;3967;48.702;9.326;2022-09-09T16:41:42;22.10;58.60
7844;DHT22;3967;48.702;9.326;2022-09-09T16:44:11;22.00;58.60
7844;DHT22;3967;48.702;9.326;2022-09-09T16:46:40;22.10;59.20
7844;DHT22;3967;48.702;9.326;2022-09-09T16:49:13;22.10;59.40
7844;DHT22;3967;48.702;9.326;2022-09-09T16:51:44;22.10;59.60
7844;DHT22;3967;48.702;9.326;2022-09-09T16:54:13;22.20;59.20
7844;DHT22;3967;48.702;9.326;2022-09-09T16:56:43;22.20;59.70
7844;DHT22;3967;48.702;9.326;2022-09-09T16:59:13;22.30;59.30
7844;DHT22;3967;48.702;9.326;2022-09-09T17:01:41;22.40;60.00
7844;DHT22;3967;48.702;9.326;2022-09-09T17:04:13;22.20;60.00
7844;DHT22;3967;48.702;9.326;2022-09-09T17:06:45;22.30;60.30
7844;DHT22;3967;48.702;9.326;2022-09-09T17:09:11;22.20;60.80
7844;DHT22;3967;48.702;9.326;2022-09-09T17:11:39;21.90;61.40
7844;DHT22;3967;48.702;9.326;2022-09-09T17:14:09;21.90;62.70
7844;DHT22;3967;48.702;9.326;2022-09-09T17:16:37;21.90;63.10
7844;DHT22;3967;48.702;9.326;2022-09-09T17:19:06;21.80;63.40
7844;DHT22;3967;48.702;9.326;2022-09-09T17:21:35;21.70;63.20
7844;DHT22;3967;48.702;9.326;2022-09-09T17:24:20;21.70;63.50
7844;DHT22;3967;48.702;9.326;2022-09-09T17:26:48;21.60;63.10
7844;DHT22;3967;48.702;9.326;2022-09-09T17:29:14;21.60;63.20
7844;DHT22;3967;48.702;9.326;2022-09-09T17:31:43;21.70;63.20
7844;DHT22;3967;48.702;9.326;2022-09-09T17:34:09;21.70;63.00
7844;DHT22;3967;48.702;9.326;2022-09-09T17:36:37;21.50;63.40
7844;DHT22;3967;48.702;9.326;2022-09-09T17:39:05;21.50;63.70
7844;DHT22;3967;48.702;9.326;2022-09-09T17:41:34;21.40;63.60
7844;DHT22;3967;48.702;9.326;2022-09-09T17:44:02;21.40;63.60
7844;DHT22;3967;48.702;9.326;2022-09-09T17:46:31;21.40;64.00
7844;DHT22;3967;48.702;9.326;2022-09-09T17:49:01;21.40;64.20
7844;DHT22;3967;48.702;9.326;2022-09-09T17:51:29;21.50;64.30
7844;DHT22;3967;48.702;9.326;2022-09-09T17:54:03;21.40;64.30
7844;DHT22;3967;48.702;9.326;2022-09-09T17:56:31;21.30;64.10
7844;DHT22;3967;48.702;9.326;2022-09-09T17:58:59;21.20;64.20
7844;DHT22;3967;48.702;9.326;2022-09-09T18:01:29;21.20;64.60
7844;DHT22;3967;48.702;9.326;2022-09-09T18:03:59;21.30;64.60
7844;DHT22;3967;48.702;9.326;2022-09-09T18:06:33;21.10;65.60
7844;DHT22;3967;48.702;9.326;2022-09-09T18:09:03;21.10;66.20
7844;DHT22;3967;48.702;9.326;2022-09-09T18:11:33;21.10;66.30
7844;DHT22;3967;48.702;9.326;2022-09-09T18:14:01;21.00;66.40
7844;DHT22;3967;48.702;9.326;2022-09-09T18:16:31;21.00;66.50
7844;DHT22;3967;48.702;9.326;2022-09-09T18:19:03;20.80;66.50
7844;DHT22;3967;48.702;9.326;2022-09-09T18:21:32;20.70;66.90
7844;DHT22;3967;48.702;9.326;2022-09-09T18:24:04;20.70;67.20
7844;DHT22;3967;48.702;9.326;2022-09-09T18:26:32;20.80;67.60
7844;DHT22;3967;48.702;9.326;2022-09-09T18:29:02;20.70;67.60
7844;DHT22;3967;48.702;9.326;2022-09-09T18:31:29;20.60;68.00
7844;DHT22;3967;48.702;9.326;2022-09-09T18:33:58;20.60;68.10
7844;DHT22;3967;48.702;9.326;2022-09-09T18:36:28;20.50;68.30
7844;DHT22;3967;48.702;9.326;2022-09-09T18:38:57;20.50;68.70
7844;DHT22;3967;48.702;9.326;2022-09-09T18:41:28;20.50;68.80
7844;DHT22;3967;48.702;9.326;2022-09-09T18:44:01;20.40;69.20
7844;DHT22;3967;48.702;9.326;2022-09-09T18:46:30;20.50;69.50
7844;DHT22;3967;48.702;9.326;2022-09-09T18:48:58;20.30;69.70
7844;DHT22;3967;48.702;9.326;2022-09-09T18:51:26;20.30;70.20
7844;DHT22;3967;48.702;9.326;2022-09-09T18:54:01;20.30;70.50